sensor_id;sensor_type;location;lat;lon;timestamp;pressure;altitude;pressure_sealevel;temperature;humidity
40502;BME280;29631;49.168;9.848;2023-08-06T00:00:20;95926.53;;;22.02;87.65
40502;BME280;29631;49.168;9.848;2023-08-06T00:02:46;95911.81;;;22.00;87.56
40502;BME280;29631;49.168;9.848;2023-08-06T00:05:12;95918.19;;;22.04;87.49
40502;BME280;29631;49.168;9.848;2023-08-06T00:07:37;95922.78;;;22.03;87.50
40502;BME280;29631;49.168;9.848;2023-08-06T00:10:03;95920.75;;;21.95;88.12
40502;BME280;29631;49.168;9.848;2023-08-06T00:12:29;95916.13;;;21.83;88.25
40502;BME280;29631;49.168;9.848;2023-08-06T00:14:55;95908.72;;;21.75;88.11
40502;BME280;29631;49.168;9.848;2023-08-06T00:17:21;95904.38;;;21.79;88.31
40502;BME280;29631;49.168;9.848;2023-08-06T00:19:46;95904.97;;;21.76;88.04
40502;BME280;29631;49.168;9.848;2023-08-06T00:22:12;95905.38;;;21.83;88.51
40502;BME280;29631;49.168;9.848;2023-08-06T00:24:38;95902.19;;;21.81;88.15
40502;BME280;29631;49.168;9.848;2023-08-06T00:27:04;95898.72;;;21.80;88.51
40502;BME280;29631;49.168;9.848;2023-08-06T00:29:29;95892.84;;;21.78;88.12
40502;BME280;29631;49.168;9.848;2023-08-06T00:31:55;95901.97;;;21.77;88.49
40502;BME280;29631;49.168;9.848;2023-08-06T00:34:21;95896.19;;;21.70;88.54
40502;BME280;29631;49.168;9.848;2023-08-06T00:36:46;95882.34;;;21.63;88.53
40502;BME280;29631;49.168;9.848;2023-08-06T00:39:12;95891.72;;;21.66;88.49
40502;BME280;29631;49.168;9.848;2023-08-06T00:41:38;95895.97;;;21.67;88.49
40502;BME280;29631;49.168;9.848;2023-08-06T00:44:04;95888.31;;;21.60;88.57
40502;BME280;29631;49.168;9.848;2023-08-06T00:46:30;95892.84;;;21.60;88.73
40502;BME280;29631;49.168;9.848;2023-08-06T00:48:57;95891.34;;;21.54;88.84
40502;BME280;29631;49.168;9.848;2023-08-06T00:51:23;95891.34;;;21.54;88.79
40502;BME280;29631;49.168;9.848;2023-08-06T00:53:50;95884.44;;;21.48;89.19
40502;BME280;29631;49.168;9.848;2023-08-06T00:56:17;95886.13;;;21.44;89.30
40502;BME280;29631;49.168;9.848;2023-08-06T00:58:43;95873.69;;;21.48;89.08
40502;BME280;29631;49.168;9.848;2023-08-06T01:01:09;95885.50;;;21.47;89.43
40502;BME280;29631;49.168;9.848;2023-08-06T01:03:35;95862.91;;;21.34;88.87
40502;BME280;29631;49.168;9.848;2023-08-06T01:06:01;95873.94;;;21.33;88.90
40502;BME280;29631;49.168;9.848;2023-08-06T01:09:01;95871.75;;;21.35;89.45
40502;BME280;29631;49.168;9.848;2023-08-06T01:11:43;95868.38;;;21.29;88.93
40502;BME280;29631;49.168;9.848;2023-08-06T01:14:30;95861.69;;;21.27;89.36
40502;BME280;29631;49.168;9.848;2023-08-06T01:16:58;95865.94;;;21.28;89.05
40502;BME280;29631;49.168;9.848;2023-08-06T01:19:24;95860.38;;;21.24;89.04
40502;BME280;29631;49.168;9.848;2023-08-06T01:21:50;95864.38;;;21.27;89.22
40502;BME280;29631;49.168;9.848;2023-08-06T01:24:16;95845.66;;;21.22;89.65
40502;BME280;29631;49.168;9.848;2023-08-06T01:26:57;95859.59;;;21.24;89.55
40502;BME280;29631;49.168;9.848;2023-08-06T01:29:48;95856.34;;;21.27;89.76
40502;BME280;29631;49.168;9.848;2023-08-06T01:32:18;95853.22;;;21.20;89.07
40502;BME280;29631;49.168;9.848;2023-08-06T01:34:46;95854.38;;;21.14;89.08
40502;BME280;29631;49.168;9.848;2023-08-06T01:37:13;95843.63;;;20.96;89.22
40502;BME280;29631;49.168;9.848;2023-08-06T01:39:42;95833.94;;;20.81;89.88
40502;BME280;29631;49.168;9.848;2023-08-06T01:42:09;95849.78;;;20.78;90.30
40502;BME280;29631;49.168;9.848;2023-08-06T01:44:34;95842.34;;;20.70;90.14
40502;BME280;29631;49.168;9.848;2023-08-06T01:47:00;95837.56;;;20.67;90.60
40502;BME280;29631;49.168;9.848;2023-08-06T01:49:26;95832.41;;;20.70;90.55
40502;BME280;29631;49.168;9.848;2023-08-06T01:51:52;95842.53;;;20.78;90.35
40502;BME280;29631;49.168;9.848;2023-08-06T01:54:17;95823.78;;;20.78;90.71
40502;BME280;29631;49.168;9.848;2023-08-06T01:56:43;95835.47;;;20.87;90.36
40502;BME280;29631;49.168;9.848;2023-08-06T01:59:09;95832.78;;;20.87;90.43
40502;BME280;29631;49.168;9.848;2023-08-06T02:01:34;95828.50;;;20.86;90.41
40502;BME280;29631;49.168;9.848;2023-08-06T02:04:00;95833.78;;;20.91;90.62
40502;BME280;29631;49.168;9.848;2023-08-06T02:06:26;95811.47;;;20.77;90.53
40502;BME280;29631;49.168;9.848;2023-08-06T02:08:51;95830.94;;;20.83;90.82
40502;BME280;29631;49.168;9.848;2023-08-06T02:11:17;95824.38;;;20.70;90.67
40502;BME280;29631;49.168;9.848;2023-08-06T02:13:43;95811.06;;;20.65;91.15
40502;BME280;29631;49.168;9.848;2023-08-06T02:16:09;95810.53;;;20.63;91.05
40502;BME280;29631;49.168;9.848;2023-08-06T02:18:35;95810.28;;;20.65;91.10
40502;BME280;29631;49.168;9.848;2023-08-06T02:21:01;95808.97;;;20.62;91.65
40502;BME280;29631;49.168;9.848;2023-08-06T02:23:27;95816.41;;;20.65;91.70
40502;BME280;29631;49.168;9.848;2023-08-06T02:26:03;95803.38;;;20.59;92.13
40502;BME280;29631;49.168;9.848;2023-08-06T02:28:32;95801.78;;;20.58;91.55
40502;BME280;29631;49.168;9.848;2023-08-06T02:30:58;95789.81;;;20.50;91.65
40502;BME280;29631;49.168;9.848;2023-08-06T02:33:24;95784.47;;;20.50;92.24
40502;BME280;29631;49.168;9.848;2023-08-06T02:35:50;95788.25;;;20.49;92.25
40502;BME280;29631;49.168;9.848;2023-08-06T02:38:15;95781.50;;;20.52;92.33
40502;BME280;29631;49.168;9.848;2023-08-06T02:40:45;95793.22;;;20.56;92.02
40502;BME280;29631;49.168;9.848;2023-08-06T02:43:12;95790.25;;;20.57;92.23
40502;BME280;29631;49.168;9.848;2023-08-06T02:45:38;95783.09;;;20.53;91.80
40502;BME280;29631;49.168;9.848;2023-08-06T02:48:04;95768.53;;;20.41;92.50
40502;BME280;29631;49.168;9.848;2023-08-06T02:50:30;95754.75;;;20.29;92.35
40502;BME280;29631;49.168;9.848;2023-08-06T02:52:55;95768.09;;;20.34;92.98
40502;BME280;29631;49.168;9.848;2023-08-06T02:55:21;95761.13;;;20.33;92.73
40502;BME280;29631;49.168;9.848;2023-08-06T02:57:47;95765.41;;;20.34;93.32
40502;BME280;29631;49.168;9.848;2023-08-06T03:00:13;95762.16;;;20.37;92.64
40502;BME280;29631;49.168;9.848;2023-08-06T03:02:38;95760.88;;;20.34;93.47
40502;BME280;29631;49.168;9.848;2023-08-06T03:05:04;95755.56;;;20.29;93.04
40502;BME280;29631;49.168;9.848;2023-08-06T03:07:31;95762.78;;;20.29;93.36
40502;BME280;29631;49.168;9.848;2023-08-06T03:09:59;95773.44;;;20.34;93.08
40502;BME280;29631;49.168;9.848;2023-08-06T03:12:27;95756.91;;;20.27;93.54
40502;BME280;29631;49.168;9.848;2023-08-06T03:14:52;95754.25;;;20.27;93.70
40502;BME280;29631;49.168;9.848;2023-08-06T03:17:18;95757.44;;;20.29;93.56
40502;BME280;29631;49.168;9.848;2023-08-06T03:19:44;95755.31;;;20.26;93.69
40502;BME280;29631;49.168;9.848;2023-08-06T03:22:10;95751.00;;;20.30;93.91
40502;BME280;29631;49.168;9.848;2023-08-06T03:24:35;95757.38;;;20.34;93.71
40502;BME280;29631;49.168;9.848;2023-08-06T03:27:01;95750.41;;;20.33;94.06
40502;BME280;29631;49.168;9.848;2023-08-06T03:29:27;95742.38;;;20.33;94.10
40502;BME280;29631;49.168;9.848;2023-08-06T03:31:53;95749.94;;;20.31;93.82
40502;BME280;29631;49.168;9.848;2023-08-06T03:34:18;95745.13;;;20.28;94.14
40502;BME280;29631;49.168;9.848;2023-08-06T03:36:44;95752.38;;;20.27;93.80
40502;BME280;29631;49.168;9.848;2023-08-06T03:39:10;95755.28;;;20.31;94.38
40502;BME280;29631;49.168;9.848;2023-08-06T03:41:36;95747.81;;;20.28;94.28
40502;BME280;29631;49.168;9.848;2023-08-06T03:44:01;95753.63;;;20.35;94.34
40502;BME280;29631;49.168;9.848;2023-08-06T03:46:29;95743.47;;;20.32;94.51
40502;BME280;29631;49.168;9.848;2023-08-06T03:48:57;95744.72;;;20.39;94.45
40502;BME280;29631;49.168;9.848;2023-08-06T03:51:23;95741.19;;;20.43;94.21
40502;BME280;29631;49.168;9.848;2023-08-06T03:53:49;95742.75;;;20.44;94.54
40502;BME280;29631;49.168;9.848;2023-08-06T03:56:14;95740.38;;;20.43;93.94
40502;BME280;29631;49.168;9.848;2023-08-06T03:58:40;95737.91;;;20.46;94.50
40502;BME280;29631;49.168;9.848;2023-08-06T04:01:06;95736.84;;;20.47;94.31
40502;BME280;29631;49.168;9.848;2023-08-06T04:03:32;95730.47;;;20.43;94.51
40502;BME280;29631;49.168;9.848;2023-08-06T04:05:57;95730.03;;;20.37;94.70
40502;BME280;29631;49.168;9.848;2023-08-06T04:08:23;95727.63;;;20.35;95.03
40502;BME280;29631;49.168;9.848;2023-08-06T04:10:52;95726.84;;;20.35;95.33
40502;BME280;29631;49.168;9.848;2023-08-06T04:13:19;95731.59;;;20.38;95.23
40502;BME280;29631;49.168;9.848;2023-08-06T04:15:45;95730.03;;;20.37;94.95
40502;BME280;29631;49.168;9.848;2023-08-06T04:18:10;95732.19;;;20.35;95.31
40502;BME280;29631;49.168;9.848;2023-08-06T04:20:46;95714.09;;;20.27;95.34
40502;BME280;29631;49.168;9.848;2023-08-06T04:23:12;95722.03;;;20.32;95.47
40502;BME280;29631;49.168;9.848;2023-08-06T04:25:39;95733.28;;;20.34;95.59
40502;BME280;29631;49.168;9.848;2023-08-06T04:28:05;95729.59;;;20.30;95.35
40502;BME280;29631;49.168;9.848;2023-08-06T04:30:30;95731.75;;;20.28;95.08
40502;BME280;29631;49.168;9.848;2023-08-06T04:32:59;95729.59;;;20.30;95.40
40502;BME280;29631;49.168;9.848;2023-08-06T04:35:25;95723.63;;;20.33;95.04
40502;BME280;29631;49.168;9.848;2023-08-06T04:37:51;95728.91;;;20.38;95.15
40502;BME280;29631;49.168;9.848;2023-08-06T04:40:17;95720.47;;;20.31;94.96
40502;BME280;29631;49.168;9.848;2023-08-06T04:42:43;95726.75;;;20.40;95.32
40502;BME280;29631;49.168;9.848;2023-08-06T04:45:09;95722.72;;;20.42;95.25
40502;BME280;29631;49.168;9.848;2023-08-06T04:47:34;95725.69;;;20.41;95.39
40502;BME280;29631;49.168;9.848;2023-08-06T04:50:00;95728.28;;;20.45;95.00
40502;BME280;29631;49.168;9.848;2023-08-06T04:52:26;95727.19;;;20.46;95.13
40502;BME280;29631;49.168;9.848;2023-08-06T04:54:54;95728.44;;;20.54;95.38
40502;BME280;29631;49.168;9.848;2023-08-06T04:57:20;95721.72;;;20.56;94.83
40502;BME280;29631;49.168;9.848;2023-08-06T04:59:46;95717.44;;;20.55;94.71
40502;BME280;29631;49.168;9.848;2023-08-06T05:02:13;95720.13;;;20.55;95.10
40502;BME280;29631;49.168;9.848;2023-08-06T05:04:38;95728.38;;;20.59;94.81
40502;BME280;29631;49.168;9.848;2023-08-06T05:07:05;95725.69;;;20.59;94.76
40502;BME280;29631;49.168;9.848;2023-08-06T05:09:31;95720.16;;;20.50;94.77
40502;BME280;29631;49.168;9.848;2023-08-06T05:11:57;95731.63;;;20.56;94.88
40502;BME280;29631;49.168;9.848;2023-08-06T05:14:22;95739.44;;;20.52;95.35
40502;BME280;29631;49.168;9.848;2023-08-06T05:16:48;95726.75;;;20.40;94.89
40502;BME280;29631;49.168;9.848;2023-08-06T05:19:14;95728.91;;;20.38;95.24
40502;BME280;29631;49.168;9.848;2023-08-06T05:21:39;95742.03;;;20.39;95.33
40502;BME280;29631;49.168;9.848;2023-08-06T05:24:05;95744.50;;;20.36;95.34
40502;BME280;29631;49.168;9.848;2023-08-06T05:26:31;95746.13;;;20.32;95.37
40502;BME280;29631;49.168;9.848;2023-08-06T05:28:57;95734.97;;;20.25;95.72
40502;BME280;29631;49.168;9.848;2023-08-06T05:31:22;95740.06;;;20.26;96.20
40502;BME280;29631;49.168;9.848;2023-08-06T05:33:48;95733.41;;;20.24;96.04
40502;BME280;29631;49.168;9.848;2023-08-06T05:36:14;95745.75;;;20.20;96.04
40502;BME280;29631;49.168;9.848;2023-08-06T05:38:40;95751.13;;;20.20;96.06
40502;BME280;29631;49.168;9.848;2023-08-06T05:41:05;95748.28;;;20.11;96.37
40502;BME280;29631;49.168;9.848;2023-08-06T05:43:31;95748.72;;;20.18;96.30
40502;BME280;29631;49.168;9.848;2023-08-06T05:45:57;95743.16;;;20.15;96.39
40502;BME280;29631;49.168;9.848;2023-08-06T05:48:23;95746.13;;;20.13;96.18
40502;BME280;29631;49.168;9.848;2023-08-06T05:50:51;95745.28;;;20.18;96.08
40502;BME280;29631;49.168;9.848;2023-08-06T05:53:17;95752.41;;;20.22;96.32
40502;BME280;29631;49.168;9.848;2023-08-06T05:55:43;95742.81;;;20.21;96.06
40502;BME280;29631;49.168;9.848;2023-08-06T05:58:10;95748.38;;;20.25;96.46
40502;BME280;29631;49.168;9.848;2023-08-06T06:00:35;95749.97;;;20.26;96.58
40502;BME280;29631;49.168;9.848;2023-08-06T06:03:01;95744.97;;;20.19;96.58
40502;BME280;29631;49.168;9.848;2023-08-06T06:05:28;95750.78;;;20.26;96.88
40502;BME280;29631;49.168;9.848;2023-08-06T06:07:54;95749.53;;;20.19;96.86
40502;BME280;29631;49.168;9.848;2023-08-06T06:10:19;95747.94;;;20.18;96.53
40502;BME280;29631;49.168;9.848;2023-08-06T06:12:45;95750.09;;;20.16;96.59
40502;BME280;29631;49.168;9.848;2023-08-06T06:15:11;95741.69;;;20.04;96.60
40502;BME280;29631;49.168;9.848;2023-08-06T06:17:37;95747.81;;;20.04;96.56
40502;BME280;29631;49.168;9.848;2023-08-06T06:20:03;95755.84;;;20.04;96.23
40502;BME280;29631;49.168;9.848;2023-08-06T06:22:30;95755.69;;;19.96;96.00
40502;BME280;29631;49.168;9.848;2023-08-06T06:24:56;95762.34;;;19.98;96.28
40502;BME280;29631;49.168;9.848;2023-08-06T06:27:21;95750.88;;;19.93;96.28
40502;BME280;29631;49.168;9.848;2023-08-06T06:29:47;95753.91;;;19.86;96.18
40502;BME280;29631;49.168;9.848;2023-08-06T06:32:13;95757.34;;;19.87;96.50
40502;BME280;29631;49.168;9.848;2023-08-06T06:34:38;95754.09;;;19.95;96.40
40502;BME280;29631;49.168;9.848;2023-08-06T06:37:04;95745.28;;;19.89;96.47
40502;BME280;29631;49.168;9.848;2023-08-06T06:39:30;95748.19;;;19.93;96.45
40502;BME280;29631;49.168;9.848;2023-08-06T06:41:56;95759.69;;;19.98;96.65
40502;BME280;29631;49.168;9.848;2023-08-06T06:44:22;95764.47;;;20.01;96.71
40502;BME280;29631;49.168;9.848;2023-08-06T06:46:47;95761.56;;;19.98;97.00
40502;BME280;29631;49.168;9.848;2023-08-06T06:49:13;95768.00;;;19.97;97.22
40502;BME280;29631;49.168;9.848;2023-08-06T06:51:39;95763.19;;;19.94;97.14
40502;BME280;29631;49.168;9.848;2023-08-06T06:54:04;95755.22;;;19.89;96.93
40502;BME280;29631;49.168;9.848;2023-08-06T06:56:30;95754.97;;;19.85;96.99
40502;BME280;29631;49.168;9.848;2023-08-06T06:58:56;95754.19;;;19.85;97.38
40502;BME280;29631;49.168;9.848;2023-08-06T07:01:22;95746.16;;;19.85;97.13
40502;BME280;29631;49.168;9.848;2023-08-06T07:03:47;95760.56;;;19.89;97.10
40502;BME280;29631;49.168;9.848;2023-08-06T07:06:13;95753.06;;;19.91;97.25
40502;BME280;29631;49.168;9.848;2023-08-06T07:08:41;95754.19;;;19.85;96.91
40502;BME280;29631;49.168;9.848;2023-08-06T07:11:07;95749.97;;;19.79;97.36
40502;BME280;29631;49.168;9.848;2023-08-06T07:13:34;95757.72;;;19.80;97.24
40502;BME280;29631;49.168;9.848;2023-08-06T07:16:00;95754.28;;;19.75;97.54
40502;BME280;29631;49.168;9.848;2023-08-06T07:18:26;95739.38;;;19.69;97.19
40502;BME280;29631;49.168;9.848;2023-08-06T07:20:54;95746.31;;;19.70;97.19
40502;BME280;29631;49.168;9.848;2023-08-06T07:23:22;95751.59;;;19.75;97.65
40502;BME280;29631;49.168;9.848;2023-08-06T07:25:49;95747.34;;;19.74;97.28
40502;BME280;29631;49.168;9.848;2023-08-06T07:28:15;95753.50;;;19.74;97.42
40502;BME280;29631;49.168;9.848;2023-08-06T07:30:42;95768.19;;;19.77;97.66
40502;BME280;29631;49.168;9.848;2023-08-06T07:33:08;95767.59;;;19.80;97.99
40502;BME280;29631;49.168;9.848;2023-08-06T07:35:36;95761.22;;;19.76;97.99
40502;BME280;29631;49.168;9.848;2023-08-06T07:38:02;95748.47;;;19.68;97.89
40502;BME280;29631;49.168;9.848;2023-08-06T07:40:28;95759.63;;;19.75;98.66
40502;BME280;29631;49.168;9.848;2023-08-06T07:42:54;95752.91;;;19.77;98.37
40502;BME280;29631;49.168;9.848;2023-08-06T07:45:20;95753.97;;;19.81;98.29
40502;BME280;29631;49.168;9.848;2023-08-06T07:47:46;95753.97;;;19.81;98.40
40502;BME280;29631;49.168;9.848;2023-08-06T07:50:13;95752.59;;;19.84;98.54
40502;BME280;29631;49.168;9.848;2023-08-06T07:52:39;95759.19;;;19.91;98.37
40502;BME280;29631;49.168;9.848;2023-08-06T07:55:05;95768.00;;;19.97;98.02
40502;BME280;29631;49.168;9.848;2023-08-06T07:57:31;95754.66;;;19.92;98.58
40502;BME280;29631;49.168;9.848;2023-08-06T07:59:57;95757.28;;;19.97;98.79
40502;BME280;29631;49.168;9.848;2023-08-06T08:02:24;95753.84;;;19.91;98.40
40502;BME280;29631;49.168;9.848;2023-08-06T08:04:49;95752.22;;;19.90;98.29
40502;BME280;29631;49.168;9.848;2023-08-06T08:07:15;95752.53;;;19.89;98.66
40502;BME280;29631;49.168;9.848;2023-08-06T08:09:41;95770.72;;;19.92;98.23
40502;BME280;29631;49.168;9.848;2023-08-06T08:12:07;95754.97;;;19.85;98.34
40502;BME280;29631;49.168;9.848;2023-08-06T08:14:33;95744.63;;;19.79;98.48
40502;BME280;29631;49.168;9.848;2023-08-06T08:17:02;95755.25;;;19.84;98.65
40502;BME280;29631;49.168;9.848;2023-08-06T08:19:29;95748.25;;;19.88;98.76
40502;BME280;29631;49.168;9.848;2023-08-06T08:21:55;95753.53;;;19.98;98.45
40502;BME280;29631;49.168;9.848;2023-08-06T08:24:22;95749.31;;;19.92;98.35
40502;BME280;29631;49.168;9.848;2023-08-06T08:26:50;95751.34;;;20.00;98.28
40502;BME280;29631;49.168;9.848;2023-08-06T08:29:16;95738.78;;;20.00;98.62
40502;BME280;29631;49.168;9.848;2023-08-06T08:31:42;95746.81;;;20.00;98.61
40502;BME280;29631;49.168;9.848;2023-08-06T08:34:09;95742.84;;;19.98;98.53
40502;BME280;29631;49.168;9.848;2023-08-06T08:36:34;95742.84;;;19.93;98.67
40502;BME280;29631;49.168;9.848;2023-08-06T08:39:00;95746.34;;;19.93;98.43
40502;BME280;29631;49.168;9.848;2023-08-06T08:41:29;95760.53;;;19.94;98.66
40502;BME280;29631;49.168;9.848;2023-08-06T08:43:56;95743.44;;;19.90;99.02
40502;BME280;29631;49.168;9.848;2023-08-06T08:46:26;95750.38;;;19.91;99.36
40502;BME280;29631;49.168;9.848;2023-08-06T08:48:53;95750.88;;;19.93;98.99
40502;BME280;29631;49.168;9.848;2023-08-06T08:51:20;95743.94;;;19.92;99.16
40502;BME280;29631;49.168;9.848;2023-08-06T08:53:47;95742.84;;;19.93;99.28
40502;BME280;29631;49.168;9.848;2023-08-06T08:56:15;95746.34;;;19.93;99.61
40502;BME280;29631;49.168;9.848;2023-08-06T08:58:41;95749.81;;;19.94;99.76
40502;BME280;29631;49.168;9.848;2023-08-06T09:01:08;95756.22;;;19.98;100.00
40502;BME280;29631;49.168;9.848;2023-08-06T09:03:35;95752.72;;;19.97;99.96
40502;BME280;29631;49.168;9.848;2023-08-06T09:06:02;95762.13;;;19.95;99.64
40502;BME280;29631;49.168;9.848;2023-08-06T09:08:37;95756.81;;;19.90;99.71
40502;BME280;29631;49.168;9.848;2023-08-06T09:11:04;95754.91;;;19.90;99.86
40502;BME280;29631;49.168;9.848;2023-08-06T09:13:30;95764.84;;;19.90;99.96
40502;BME280;29631;49.168;9.848;2023-08-06T09:15:56;95758.97;;;19.88;99.97
40502;BME280;29631;49.168;9.848;2023-08-06T09:18:26;95770.19;;;19.90;100.00
40502;BME280;29631;49.168;9.848;2023-08-06T09:20:56;95763.78;;;19.86;100.00
40502;BME280;29631;49.168;9.848;2023-08-06T09:23:28;95763.28;;;19.84;100.00
40502;BME280;29631;49.168;9.848;2023-08-06T09:25:58;95758.44;;;19.86;100.00
40502;BME280;29631;49.168;9.848;2023-08-06T09:28:24;95752.59;;;19.84;100.00
40502;BME280;29631;49.168;9.848;2023-08-06T09:30:52;95756.28;;;19.88;100.00
40502;BME280;29631;49.168;9.848;2023-08-06T09:33:22;95758.44;;;19.86;100.00
40502;BME280;29631;49.168;9.848;2023-08-06T09:35:49;95759.78;;;19.88;100.00
40502;BME280;29631;49.168;9.848;2023-08-06T09:38:14;95756.22;;;19.93;100.00
40502;BME280;29631;49.168;9.848;2023-08-06T09:40:40;95756.00;;;19.94;100.00
40502;BME280;29631;49.168;9.848;2023-08-06T09:43:06;95754.84;;;20.00;100.00
40502;BME280;29631;49.168;9.848;2023-08-06T09:45:37;95763.38;;;20.02;100.00
40502;BME280;29631;49.168;9.848;2023-08-06T09:48:07;95749.72;;;20.04;100.00
40502;BME280;29631;49.168;9.848;2023-08-06T09:50:36;95760.88;;;20.11;100.00
40502;BME280;29631;49.168;9.848;2023-08-06T09:53:06;95756.59;;;20.10;100.00
40502;BME280;29631;49.168;9.848;2023-08-06T09:55:34;95751.72;;;20.17;100.00
40502;BME280;29631;49.168;9.848;2023-08-06T09:58:00;95751.72;;;20.17;100.00
40502;BME280;29631;49.168;9.848;2023-08-06T10:00:27;95763.94;;;20.23;100.00
40502;BME280;29631;49.168;9.848;2023-08-06T10:02:54;95757.00;;;20.22;100.00
40502;BME280;29631;49.168;9.848;2023-08-06T10:05:22;95743.59;;;20.22;100.00
40502;BME280;29631;49.168;9.848;2023-08-06T10:07:49;95748.97;;;20.22;100.00
40502;BME280;29631;49.168;9.848;2023-08-06T10:10:16;95757.28;;;20.20;100.00
40502;BME280;29631;49.168;9.848;2023-08-06T10:12:49;95755.47;;;20.16;100.00
40502;BME280;29631;49.168;9.848;2023-08-06T10:15:22;95743.22;;;20.10;100.00
40502;BME280;29631;49.168;9.848;2023-08-06T10:17:52;95746.47;;;20.07;100.00
40502;BME280;29631;49.168;9.848;2023-08-06T10:20:20;95745.50;;;19.98;100.00
40502;BME280;29631;49.168;9.848;2023-08-06T10:23:03;95734.28;;;19.96;100.00
40502;BME280;29631;49.168;9.848;2023-08-06T10:25:35;95743.84;;;20.02;100.00
40502;BME280;29631;49.168;9.848;2023-08-06T10:28:07;95759.56;;;20.08;100.00
40502;BME280;29631;49.168;9.848;2023-08-06T10:30:35;95747.44;;;20.16;100.00
40502;BME280;29631;49.168;9.848;2023-08-06T10:33:06;95751.13;;;20.20;100.00
40502;BME280;29631;49.168;9.848;2023-08-06T10:35:37;95751.56;;;20.27;100.00
40502;BME280;29631;49.168;9.848;2023-08-06T10:38:09;95747.03;;;20.27;100.00
40502;BME280;29631;49.168;9.848;2023-08-06T10:40:39;95746.09;;;20.37;100.00
40502;BME280;29631;49.168;9.848;2023-08-06T10:43:05;95746.66;;;20.34;100.00
40502;BME280;29631;49.168;9.848;2023-08-06T10:45:37;95738.06;;;20.37;100.00
40502;BME280;29631;49.168;9.848;2023-08-06T10:48:04;95734.34;;;20.33;100.00
40502;BME280;29631;49.168;9.848;2023-08-06T10:50:30;95729.00;;;20.33;100.00
40502;BME280;29631;49.168;9.848;2023-08-06T10:52:57;95741.22;;;20.39;100.00
40502;BME280;29631;49.168;9.848;2023-08-06T10:55:28;95732.25;;;20.30;100.00
40502;BME280;29631;49.168;9.848;2023-08-06T10:57:55;95725.94;;;20.21;100.00
40502;BME280;29631;49.168;9.848;2023-08-06T11:00:24;95734.59;;;20.13;100.00
40502;BME280;29631;49.168;9.848;2023-08-06T11:02:52;95737.25;;;20.18;100.00
40502;BME280;29631;49.168;9.848;2023-08-06T11:05:18;95731.28;;;20.21;100.00
40502;BME280;29631;49.168;9.848;2023-08-06T11:07:44;95725.72;;;20.17;100.00
40502;BME280;29631;49.168;9.848;2023-08-06T11:10:12;95724.34;;;20.20;100.00
40502;BME280;29631;49.168;9.848;2023-08-06T11:12:39;95716.31;;;20.20;100.00
40502;BME280;29631;49.168;9.848;2023-08-06T11:15:05;95718.72;;;20.21;100.00
40502;BME280;29631;49.168;9.848;2023-08-06T11:17:33;95725.88;;;20.26;100.00
40502;BME280;29631;49.168;9.848;2023-08-06T11:20:01;95730.75;;;20.24;100.00
40502;BME280;29631;49.168;9.848;2023-08-06T11:22:27;95742.22;;;20.24;100.00
40502;BME280;29631;49.168;9.848;2023-08-06T11:24:53;95721.28;;;20.08;100.00
40502;BME280;29631;49.168;9.848;2023-08-06T11:27:19;95718.31;;;20.09;100.00
40502;BME280;29631;49.168;9.848;2023-08-06T11:29:48;95728.75;;;20.11;100.00
40502;BME280;29631;49.168;9.848;2023-08-06T11:32:14;95738.34;;;20.12;100.00
40502;BME280;29631;49.168;9.848;2023-08-06T11:34:40;95744.81;;;20.11;100.00
40502;BME280;29631;49.168;9.848;2023-08-06T11:37:09;95716.53;;;20.05;100.00
40502;BME280;29631;49.168;9.848;2023-08-06T11:39:37;95732.44;;;20.15;100.00
40502;BME280;29631;49.168;9.848;2023-08-06T11:42:06;95729.47;;;20.16;100.00
40502;BME280;29631;49.168;9.848;2023-08-06T11:44:35;95712.50;;;20.02;100.00
40502;BME280;29631;49.168;9.848;2023-08-06T11:47:04;95726.09;;;20.11;100.00
40502;BME280;29631;49.168;9.848;2023-08-06T11:49:42;95732.50;;;20.10;100.00
40502;BME280;29631;49.168;9.848;2023-08-06T11:52:12;95734.03;;;20.16;100.00
40502;BME280;29631;49.168;9.848;2023-08-06T11:54:38;95736.84;;;20.06;100.00
40502;BME280;29631;49.168;9.848;2023-08-06T11:57:08;95737.47;;;19.98;100.00
40502;BME280;29631;49.168;9.848;2023-08-06T11:59:34;95740.72;;;19.95;100.00
40502;BME280;29631;49.168;9.848;2023-08-06T12:02:03;95747.69;;;19.91;100.00
40502;BME280;29631;49.168;9.848;2023-08-06T12:04:31;95756.47;;;19.96;100.00
40502;BME280;29631;49.168;9.848;2023-08-06T12:07:06;95741.78;;;19.94;100.00
40502;BME280;29631;49.168;9.848;2023-08-06T12:09:33;95771.75;;;19.96;100.00
40502;BME280;29631;49.168;9.848;2023-08-06T12:11:59;95743.53;;;19.80;100.00
40502;BME280;29631;49.168;9.848;2023-08-06T12:14:25;95770.56;;;19.78;100.00
40502;BME280;29631;49.168;9.848;2023-08-06T12:16:50;95761.84;;;19.68;100.00
40502;BME280;29631;49.168;9.848;2023-08-06T12:19:16;95772.59;;;19.63;100.00
40502;BME280;29631;49.168;9.848;2023-08-06T12:21:42;95757.28;;;19.45;100.00
40502;BME280;29631;49.168;9.848;2023-08-06T12:24:08;95769.50;;;19.51;100.00
40502;BME280;29631;49.168;9.848;2023-08-06T12:26:35;95773.03;;;19.47;100.00
40502;BME280;29631;49.168;9.848;2023-08-06T12:29:01;95775.97;;;19.45;100.00
40502;BME280;29631;49.168;9.848;2023-08-06T12:31:26;95778.47;;;19.37;100.00
40502;BME280;29631;49.168;9.848;2023-08-06T12:33:52;95774.78;;;19.28;100.00
40502;BME280;29631;49.168;9.848;2023-08-06T12:36:18;95787.63;;;19.26;100.00
40502;BME280;29631;49.168;9.848;2023-08-06T12:38:43;95792.19;;;19.25;100.00
40502;BME280;29631;49.168;9.848;2023-08-06T12:41:09;95785.50;;;19.28;100.00
40502;BME280;29631;49.168;9.848;2023-08-06T12:43:35;95786.09;;;19.20;100.00
40502;BME280;29631;49.168;9.848;2023-08-06T12:46:01;95787.44;;;19.17;100.00
40502;BME280;29631;49.168;9.848;2023-08-06T12:48:26;95792.50;;;19.19;100.00
40502;BME280;29631;49.168;9.848;2023-08-06T12:50:52;95804.56;;;19.16;100.00
40502;BME280;29631;49.168;9.848;2023-08-06T12:53:18;95808.63;;;19.09;100.00
40502;BME280;29631;49.168;9.848;2023-08-06T12:55:46;95813.69;;;19.05;100.00